createdAt,value
2023-01-12T00:01:07.719Z,100721.50
2023-01-12T00:03:34.669Z,100717.06
2023-01-12T00:06:09.971Z,100716.44
2023-01-12T00:08:36.575Z,100724.28
2023-01-12T00:11:03.598Z,100730.38
2023-01-12T00:13:30.634Z,100731.25
2023-01-12T00:16:16.352Z,100728.22
2023-01-12T00:18:43.048Z,100734.22
2023-01-12T00:21:09.633Z,100738.00
2023-01-12T00:23:36.496Z,100742.66
2023-01-12T00:26:06.873Z,100743.13
2023-01-12T00:28:33.518Z,100726.63
2023-01-12T00:31:01.317Z,100723.50
2023-01-12T00:33:28.352Z,100714.41
2023-01-12T00:36:00.476Z,100726.06
2023-01-12T00:38:29.737Z,100715.28
2023-01-12T00:40:58.858Z,100726.03
2023-01-12T00:43:44.445Z,100730.00
2023-01-12T00:46:11.107Z,100727.38
2023-01-12T00:48:37.831Z,100729.69
2023-01-12T00:51:04.562Z,100734.22
2023-01-12T00:53:31.240Z,100741.25
2023-01-12T00:56:04.303Z,100739.75
2023-01-12T00:58:33.542Z,100734.00
2023-01-12T01:01:06.578Z,100735.03
2023-01-12T01:03:33.681Z,100739.44
2023-01-12T01:06:06.980Z,100741.53
2023-01-12T01:08:36.775Z,100746.31
2023-01-12T01:11:04.609Z,100754.72
2023-01-12T01:13:33.709Z,100759.69
2023-01-12T01:16:00.758Z,100755.22
2023-01-12T01:18:28.043Z,100758.28
2023-01-12T01:20:54.919Z,100754.28
2023-01-12T01:23:22.119Z,100765.75
2023-01-12T01:25:48.813Z,100767.31
2023-01-12T01:28:15.724Z,100769.28
2023-01-12T01:30:42.380Z,100769.28
2023-01-12T01:33:11.446Z,100762.38
2023-01-12T01:35:43.078Z,100770.19
2023-01-12T01:38:09.790Z,100773.91
2023-01-12T01:40:42.073Z,100777.28
2023-01-12T01:43:09.985Z,100770.47
2023-01-12T01:45:36.863Z,100772.91
2023-01-12T01:48:06.015Z,100769.84
2023-01-12T01:50:34.619Z,100775.16
2023-01-12T01:53:05.244Z,100763.47
2023-01-12T01:55:36.711Z,100763.28
2023-01-12T01:58:10.930Z,100759.91
2023-01-12T02:00:38.413Z,100761.66
2023-01-12T02:03:07.709Z,100765.03
2023-01-12T02:05:34.431Z,100771.59
2023-01-12T02:08:09.051Z,100772.69
2023-01-12T02:10:35.826Z,100771.97
2023-01-12T02:13:21.137Z,100778.00
2023-01-12T02:16:10.726Z,100770.00
2023-01-12T02:18:42.429Z,100778.44
2023-01-12T02:21:32.235Z,100767.78
2023-01-12T02:24:08.217Z,100778.19
2023-01-12T02:26:57.523Z,100780.19
2023-01-12T02:29:39.571Z,100781.09
2023-01-12T02:32:06.365Z,100785.22
2023-01-12T02:34:33.008Z,100775.41
2023-01-12T02:37:11.853Z,100766.44
2023-01-12T02:39:43.605Z,100772.94
2023-01-12T02:42:44.193Z,100783.22
2023-01-12T02:45:19.944Z,100779.31
2023-01-12T02:47:48.664Z,100773.47
2023-01-12T02:50:24.371Z,100775.06
2023-01-12T02:52:55.272Z,100760.41
2023-01-12T02:55:22.320Z,100763.47
2023-01-12T02:57:49.044Z,100764.13
2023-01-12T03:00:18.243Z,100758.34
2023-01-12T03:02:44.930Z,100756.59
2023-01-12T03:05:11.567Z,100756.16
2023-01-12T03:07:39.874Z,100758.88
2023-01-12T03:10:12.505Z,100754.75
2023-01-12T03:12:39.111Z,100752.09
2023-01-12T03:15:06.787Z,100757.06
2023-01-12T03:17:34.832Z,100747.44
2023-01-12T03:20:07.681Z,100750.81
2023-01-12T03:22:36.745Z,100750.34
2023-01-12T03:25:03.502Z,100747.63
2023-01-12T03:27:30.835Z,100743.28
2023-01-12T03:30:01.334Z,100741.84
2023-01-12T03:32:28.079Z,100740.59
2023-01-12T03:34:54.717Z,100746.94
2023-01-12T03:37:21.310Z,100737.75
2023-01-12T03:39:51.057Z,100742.13
2023-01-12T03:42:18.587Z,100744.50
2023-01-12T03:44:53.696Z,100751.09
2023-01-12T03:47:21.166Z,100743.09
2023-01-12T03:49:50.791Z,100738.56
2023-01-12T03:52:17.483Z,100744.88
2023-01-12T03:54:44.161Z,100737.16
2023-01-12T03:57:12.317Z,100737.44
2023-01-12T03:59:39.341Z,100743.75
2023-01-12T04:02:06.189Z,100739.91
2023-01-12T04:04:32.817Z,100741.97
2023-01-12T04:07:01.718Z,100744.25
2023-01-12T04:09:31.282Z,100735.91
2023-01-12T04:12:15.500Z,100732.97
2023-01-12T04:14:47.794Z,100734.84
2023-01-12T04:17:15.063Z,100737.41
2023-01-12T04:19:44.430Z,100737.56
2023-01-12T04:22:33.277Z,100744.84
2023-01-12T04:24:59.899Z,100735.69
2023-01-12T04:27:28.878Z,100737.78
2023-01-12T04:29:58.033Z,100734.59
2023-01-12T04:32:24.601Z,100746.69
2023-01-12T04:34:51.770Z,100744.16
2023-01-12T04:37:21.500Z,100743.38
2023-01-12T04:39:48.324Z,100740.81
2023-01-12T04:42:33.618Z,100738.47
2023-01-12T04:45:00.285Z,100739.63
2023-01-12T04:47:26.873Z,100738.09
2023-01-12T04:49:55.988Z,100737.53
2023-01-12T04:52:22.553Z,100745.84
2023-01-12T04:54:49.169Z,100749.47
2023-01-12T04:57:15.757Z,100746.97
2023-01-12T04:59:44.742Z,100753.09
2023-01-12T05:02:11.485Z,100749.53
2023-01-12T05:04:38.239Z,100752.06
2023-01-12T05:07:07.502Z,100757.28
2023-01-12T05:09:55.337Z,100759.03
2023-01-12T05:12:22.040Z,100751.41
2023-01-12T05:14:49.143Z,100760.28
2023-01-12T05:17:16.101Z,100750.88
2023-01-12T05:19:45.260Z,100763.50
2023-01-12T05:22:14.324Z,100759.38
2023-01-12T05:24:40.953Z,100757.78
2023-01-12T05:27:07.607Z,100754.22
2023-01-12T05:29:34.188Z,100758.69
2023-01-12T05:32:03.734Z,100758.03
2023-01-12T05:34:33.346Z,100772.72
2023-01-12T05:37:00.044Z,100773.44
2023-01-12T05:39:26.708Z,100769.00
2023-01-12T05:42:12.149Z,100770.59
2023-01-12T05:44:38.771Z,100771.50
2023-01-12T05:47:08.197Z,100774.88
2023-01-12T05:49:34.860Z,100768.00
2023-01-12T05:52:01.544Z,100771.56
2023-01-12T05:54:28.267Z,100770.94
2023-01-12T05:56:55.724Z,100763.84
2023-01-12T05:59:22.348Z,100760.13
2023-01-12T06:01:48.908Z,100763.50
2023-01-12T06:04:15.783Z,100769.00
2023-01-12T06:06:42.413Z,100762.84
2023-01-12T06:09:09.014Z,100764.72
2023-01-12T06:11:54.391Z,100758.84
2023-01-12T06:14:23.340Z,100761.34
2023-01-12T06:16:52.395Z,100764.81
2023-01-12T06:19:18.983Z,100761.25
2023-01-12T06:21:51.615Z,100766.41
2023-01-12T06:24:18.209Z,100776.56
2023-01-12T06:26:45.306Z,100787.69
2023-01-12T06:29:13.799Z,100781.06
2023-01-12T06:31:40.468Z,100784.47
2023-01-12T06:34:10.316Z,100787.16
2023-01-12T06:36:37.395Z,100785.47
2023-01-12T06:39:06.253Z,100788.97
2023-01-12T06:41:52.567Z,100791.03
2023-01-12T06:44:22.369Z,100798.22
2023-01-12T06:46:51.443Z,100810.25
2023-01-12T06:49:18.542Z,100811.84
2023-01-12T06:51:47.688Z,100810.38
2023-01-12T06:54:14.420Z,100817.56
2023-01-12T06:56:41.333Z,100814.00
2023-01-12T06:59:13.164Z,100818.13
2023-01-12T07:01:40.295Z,100815.69
2023-01-12T07:04:07.025Z,100817.50
2023-01-12T07:06:33.971Z,100822.03
2023-01-12T07:09:00.743Z,100826.63
2023-01-12T07:11:29.842Z,100832.84
2023-01-12T07:13:56.463Z,100830.44
2023-01-12T07:16:26.091Z,100837.44
2023-01-12T07:18:52.839Z,100837.59
2023-01-12T07:21:22.657Z,100839.31
2023-01-12T07:23:49.728Z,100836.00
2023-01-12T07:26:18.898Z,100837.88
2023-01-12T07:28:45.950Z,100845.84
2023-01-12T07:31:13.439Z,100835.53
2023-01-12T07:33:40.235Z,100833.19
2023-01-12T07:36:12.337Z,100839.66
2023-01-12T07:38:39.081Z,100838.28
2023-01-12T07:41:05.739Z,100837.78
2023-01-12T07:43:34.738Z,100847.63
2023-01-12T07:46:01.443Z,100851.97
2023-01-12T07:48:30.854Z,100853.84
2023-01-12T07:51:00.088Z,100857.91
2023-01-12T07:53:26.663Z,100859.44
2023-01-12T07:55:58.662Z,100862.78
2023-01-12T07:58:27.631Z,100852.31
2023-01-12T08:00:59.899Z,100858.63
2023-01-12T08:03:26.740Z,100855.88
2023-01-12T08:05:57.384Z,100856.75
2023-01-12T08:08:26.608Z,100859.75
2023-01-12T08:10:53.188Z,100859.44
2023-01-12T08:13:22.951Z,100864.63
2023-01-12T08:15:50.103Z,100866.41
2023-01-12T08:18:20.614Z,100867.94
2023-01-12T08:20:47.374Z,100859.25
2023-01-12T08:23:15.301Z,100859.44
2023-01-12T08:25:45.924Z,100863.44
2023-01-12T08:28:16.847Z,100860.16
2023-01-12T08:30:44.883Z,100868.41
2023-01-12T08:33:11.701Z,100861.28
2023-01-12T08:35:38.330Z,100862.25
2023-01-12T08:38:04.940Z,100871.44
2023-01-12T08:40:50.234Z,100865.66
2023-01-12T08:43:39.855Z,100857.63
2023-01-12T08:46:10.103Z,100855.94
2023-01-12T08:48:37.149Z,100854.91
2023-01-12T08:51:09.100Z,100864.19
2023-01-12T08:53:38.117Z,100856.38
2023-01-12T08:56:04.805Z,100861.09
2023-01-12T08:58:33.878Z,100860.22
2023-01-12T09:01:13.725Z,100860.88
2023-01-12T09:03:40.770Z,100847.75
2023-01-12T09:06:14.847Z,100853.06
2023-01-12T09:08:43.881Z,100858.09
2023-01-12T09:11:11.258Z,100858.69
2023-01-12T09:13:38.382Z,100860.84
2023-01-12T09:16:13.162Z,100860.47
2023-01-12T09:18:40.743Z,100857.28
2023-01-12T09:21:13.939Z,100854.09
2023-01-12T09:23:40.646Z,100853.69
2023-01-12T09:26:12.124Z,100855.00
2023-01-12T09:28:38.980Z,100852.06
2023-01-12T09:31:06.836Z,100856.47
2023-01-12T09:33:36.394Z,100861.94
2023-01-12T09:36:06.265Z,100867.28
2023-01-12T09:38:34.533Z,100863.06
2023-01-12T09:41:09.773Z,100862.69
2023-01-12T09:43:55.142Z,100852.44
2023-01-12T09:46:49.817Z,100854.13
2023-01-12T09:49:17.202Z,100843.13
2023-01-12T09:51:45.873Z,100849.25
2023-01-12T09:54:12.795Z,100847.25
2023-01-12T09:56:52.473Z,100842.75
2023-01-12T09:59:38.015Z,100834.78
2023-01-12T10:02:08.064Z,100830.41
2023-01-12T10:04:36.036Z,100832.75
2023-01-12T10:07:05.002Z,100841.38
2023-01-12T10:09:32.127Z,100837.97
2023-01-12T10:12:02.208Z,100838.91
2023-01-12T10:14:47.451Z,100836.06
2023-01-12T10:17:16.415Z,100834.41
2023-01-12T10:19:43.649Z,100832.81
2023-01-12T10:22:39.719Z,100829.75
2023-01-12T10:25:07.029Z,100828.47
2023-01-12T10:27:34.007Z,100833.09
2023-01-12T10:30:07.581Z,100832.47
2023-01-12T10:32:41.542Z,100826.50
2023-01-12T10:35:15.361Z,100828.88
2023-01-12T10:37:49.706Z,100832.22
2023-01-12T10:40:21.944Z,100825.44
2023-01-12T10:43:15.761Z,100827.91
2023-01-12T10:45:55.428Z,100818.75
2023-01-12T10:48:26.869Z,100813.13
2023-01-12T10:50:59.797Z,100814.75
2023-01-12T10:53:45.800Z,100813.47
2023-01-12T10:56:24.977Z,100806.00
2023-01-12T10:58:52.391Z,100814.00
2023-01-12T11:01:19.091Z,100812.84
2023-01-12T11:03:46.127Z,100799.69
2023-01-12T11:06:16.919Z,100804.59
2023-01-12T11:08:43.705Z,100803.16
2023-01-12T11:11:22.883Z,100804.09
2023-01-12T11:13:52.063Z,100791.31
2023-01-12T11:16:22.928Z,100798.25
2023-01-12T11:18:50.160Z,100786.56
2023-01-12T11:21:17.978Z,100783.66
2023-01-12T11:23:46.925Z,100776.19
2023-01-12T11:26:16.389Z,100777.06
2023-01-12T11:28:44.040Z,100779.59
2023-01-12T11:31:20.005Z,100781.94
2023-01-12T11:33:51.072Z,100777.81
2023-01-12T11:36:18.168Z,100778.59
2023-01-12T11:38:48.591Z,100775.63
2023-01-12T11:41:25.718Z,100776.06
2023-01-12T11:44:13.098Z,100771.91
2023-01-12T11:46:43.675Z,100774.50
2023-01-12T11:49:20.938Z,100768.41
2023-01-12T11:51:48.012Z,100766.13
2023-01-12T11:54:15.383Z,100767.38
2023-01-12T11:56:54.221Z,100765.59
2023-01-12T11:59:42.068Z,100768.84
2023-01-12T12:02:11.767Z,100758.47
2023-01-12T12:04:40.819Z,100758.75
2023-01-12T12:07:16.478Z,100764.22
2023-01-12T12:09:43.085Z,100760.69
2023-01-12T12:12:25.568Z,100760.31
2023-01-12T12:14:52.141Z,100760.03
2023-01-12T12:17:19.879Z,100760.66
2023-01-12T12:19:52.384Z,100751.50
2023-01-12T12:22:22.479Z,100747.00
2023-01-12T12:24:52.140Z,100744.72
2023-01-12T12:27:25.503Z,100742.47
2023-01-12T12:30:10.011Z,100746.78
2023-01-12T12:32:47.436Z,100741.25
2023-01-12T12:35:14.728Z,100741.47
2023-01-12T12:37:48.003Z,100742.69
2023-01-12T12:40:28.651Z,100732.72
2023-01-12T12:43:26.160Z,100747.59
2023-01-12T12:45:56.890Z,100750.84
2023-01-12T12:48:41.619Z,100742.63
2023-01-12T12:51:12.048Z,100735.84
2023-01-12T12:53:45.976Z,100738.97
2023-01-12T12:56:14.588Z,100729.25
2023-01-12T12:58:46.137Z,100730.44
2023-01-12T13:01:25.334Z,100734.69
2023-01-12T13:03:52.924Z,100740.53
2023-01-12T13:06:38.258Z,100727.28
2023-01-12T13:09:27.929Z,100733.00
2023-01-12T13:11:57.840Z,100733.00
2023-01-12T13:14:27.493Z,100726.84
2023-01-12T13:16:55.062Z,100729.22
2023-01-12T13:19:38.137Z,100730.50
2023-01-12T13:22:17.148Z,100733.03
2023-01-12T13:24:46.091Z,100729.88
2023-01-12T13:27:33.019Z,100727.16
2023-01-12T13:30:32.068Z,100723.25
2023-01-12T13:33:14.786Z,100732.78
2023-01-12T13:35:47.160Z,100730.72
2023-01-12T13:38:16.620Z,100737.22
2023-01-12T13:40:55.479Z,100732.38
2023-01-12T13:43:29.299Z,100728.66
2023-01-12T13:46:00.265Z,100738.59
2023-01-12T13:48:29.853Z,100741.22
2023-01-12T13:51:00.804Z,100740.22
2023-01-12T13:53:28.815Z,100740.00
2023-01-12T13:56:05.578Z,100734.84
2023-01-12T13:58:41.783Z,100739.69
2023-01-12T14:01:23.026Z,100740.56
2023-01-12T14:03:49.995Z,100736.53
2023-01-12T14:06:16.598Z,100734.03
2023-01-12T14:08:51.702Z,100744.88
2023-01-12T14:11:29.723Z,100742.41
2023-01-12T14:14:24.848Z,100742.44
2023-01-12T14:17:10.004Z,100733.41
2023-01-12T14:19:42.612Z,100731.31
2023-01-12T14:22:19.334Z,100735.75
2023-01-12T14:24:48.154Z,100724.91
2023-01-12T14:27:24.665Z,100732.03
2023-01-12T14:29:52.771Z,100726.38
2023-01-12T14:32:19.820Z,100727.16
2023-01-12T14:34:49.289Z,100724.63
2023-01-12T14:37:27.186Z,100723.84
2023-01-12T14:39:58.488Z,100724.88
2023-01-12T14:42:43.947Z,100724.25
2023-01-12T14:45:42.507Z,100718.38
2023-01-12T14:48:21.793Z,100713.28
2023-01-12T14:51:01.025Z,100721.97
2023-01-12T14:53:41.141Z,100707.22
2023-01-12T14:56:08.829Z,100717.03
2023-01-12T14:58:35.552Z,100717.97
2023-01-12T15:01:04.877Z,100715.72
2023-01-12T15:03:43.051Z,100715.34
2023-01-12T15:06:13.805Z,100719.63
2023-01-12T15:08:51.558Z,100726.16
2023-01-12T15:11:28.091Z,100721.50
2023-01-12T15:13:58.561Z,100715.97
2023-01-12T15:16:46.361Z,100711.41
2023-01-12T15:19:31.648Z,100720.44
2023-01-12T15:22:16.974Z,100719.63
2023-01-12T15:25:02.736Z,100726.50
2023-01-12T15:27:29.547Z,100721.47
2023-01-12T15:29:56.411Z,100722.34
2023-01-12T15:32:47.223Z,100719.69
2023-01-12T15:35:26.896Z,100721.13
2023-01-12T15:37:54.634Z,100712.28
2023-01-12T15:40:21.816Z,100720.66
2023-01-12T15:42:54.278Z,100716.16
2023-01-12T15:45:24.228Z,100722.91
2023-01-12T15:48:00.795Z,100721.00
2023-01-12T15:50:46.621Z,100729.47
2023-01-12T15:53:19.711Z,100723.13
2023-01-12T15:55:48.696Z,100734.03
2023-01-12T15:58:16.921Z,100736.41
2023-01-12T16:00:43.823Z,100737.09
2023-01-12T16:03:28.891Z,100736.06
2023-01-12T16:06:00.333Z,100740.28
2023-01-12T16:08:27.025Z,100737.50
2023-01-12T16:11:17.791Z,100742.53
2023-01-12T16:13:44.479Z,100743.06
2023-01-12T16:16:13.698Z,100742.19
2023-01-12T16:18:40.465Z,100749.66
2023-01-12T16:21:07.085Z,100741.91
2023-01-12T16:23:34.104Z,100744.28
2023-01-12T16:26:01.265Z,100743.78
2023-01-12T16:28:28.729Z,100742.81
2023-01-12T16:30:57.095Z,100743.53
2023-01-12T16:33:23.995Z,100746.06
2023-01-12T16:35:54.639Z,100753.81
2023-01-12T16:38:21.283Z,100755.00
2023-01-12T16:40:53.338Z,100745.03
2023-01-12T16:43:23.024Z,100749.53
2023-01-12T16:45:50.474Z,100750.31
2023-01-12T16:48:23.030Z,100754.41
2023-01-12T16:50:52.488Z,100750.16
2023-01-12T16:53:19.192Z,100750.91
2023-01-12T16:55:48.323Z,100752.69
2023-01-12T16:58:17.219Z,100754.97
2023-01-12T17:00:46.495Z,100761.91
2023-01-12T17:03:14.398Z,100763.97
2023-01-12T17:05:41.589Z,100762.78
2023-01-12T17:08:08.621Z,100772.00
2023-01-12T17:10:36.357Z,100773.72
2023-01-12T17:13:03.268Z,100763.22
2023-01-12T17:15:32.433Z,100759.66
2023-01-12T17:18:01.835Z,100765.53
2023-01-12T17:20:28.678Z,100763.28
2023-01-12T17:22:55.492Z,100757.25
2023-01-12T17:25:25.253Z,100765.59
2023-01-12T17:27:55.122Z,100762.69
2023-01-12T17:30:22.777Z,100751.59
2023-01-12T17:32:49.501Z,100754.44
2023-01-12T17:35:16.491Z,100752.75
2023-01-12T17:37:43.244Z,100756.31
2023-01-12T17:40:10.362Z,100753.72
2023-01-12T17:42:57.729Z,100755.50
2023-01-12T17:45:27.331Z,100755.31
2023-01-12T17:47:54.023Z,100765.09
2023-01-12T17:50:26.165Z,100769.59
2023-01-12T17:52:55.148Z,100768.16
2023-01-12T17:55:21.782Z,100764.06
2023-01-12T17:57:48.561Z,100758.06
2023-01-12T18:00:16.425Z,100757.34
2023-01-12T18:02:43.686Z,100763.41
2023-01-12T18:05:10.775Z,100758.41
2023-01-12T18:07:41.991Z,100762.41
2023-01-12T18:10:10.488Z,100762.84
2023-01-12T18:12:37.557Z,100763.22
2023-01-12T18:15:04.639Z,100759.69
2023-01-12T18:17:33.786Z,100760.63
2023-01-12T18:20:00.559Z,100759.59
2023-01-12T18:22:29.764Z,100754.19
2023-01-12T18:24:59.005Z,100753.31
2023-01-12T18:27:28.138Z,100767.09
2023-01-12T18:29:57.727Z,100771.19
2023-01-12T18:32:24.302Z,100777.13
2023-01-12T18:34:51.005Z,100768.53
2023-01-12T18:37:17.653Z,100771.91
2023-01-12T18:39:45.327Z,100775.31
2023-01-12T18:42:41.398Z,100770.75
2023-01-12T18:45:08.352Z,100772.38
2023-01-12T18:47:53.704Z,100766.06
2023-01-12T18:50:39.023Z,100760.50
2023-01-12T18:53:24.437Z,100770.13
2023-01-12T18:55:57.108Z,100772.63
2023-01-12T18:58:28.551Z,100758.06
2023-01-12T19:01:03.273Z,100753.28
2023-01-12T19:03:30.419Z,100758.97
2023-01-12T19:06:01.181Z,100754.00
2023-01-12T19:08:47.716Z,100756.16
2023-01-12T19:11:15.131Z,100761.84
2023-01-12T19:14:00.303Z,100759.34
2023-01-12T19:16:46.066Z,100761.69
2023-01-12T19:19:12.779Z,100755.03
2023-01-12T19:21:58.275Z,100748.63
2023-01-12T19:24:43.969Z,100747.91
2023-01-12T19:27:29.936Z,100748.00
2023-01-12T19:29:56.661Z,100745.59
2023-01-12T19:32:23.266Z,100743.03
2023-01-12T19:34:56.527Z,100740.00
2023-01-12T19:37:30.943Z,100726.31
2023-01-12T19:40:01.847Z,100730.06
2023-01-12T19:42:47.328Z,100728.44
2023-01-12T19:45:16.358Z,100717.19
2023-01-12T19:47:45.603Z,100718.13
2023-01-12T19:50:13.200Z,100716.38
2023-01-12T19:52:43.050Z,100706.69
2023-01-12T19:55:12.134Z,100699.03
2023-01-12T19:57:38.881Z,100709.28
2023-01-12T20:00:06.288Z,100707.94
2023-01-12T20:02:38.692Z,100708.56
2023-01-12T20:05:05.511Z,100708.91
2023-01-12T20:07:32.235Z,100711.41
2023-01-12T20:10:02.267Z,100717.09
2023-01-12T20:12:32.404Z,100717.25
2023-01-12T20:15:01.649Z,100721.00
2023-01-12T20:17:28.346Z,100719.22
2023-01-12T20:19:55.083Z,100727.03
2023-01-12T20:22:21.801Z,100719.03
2023-01-12T20:24:50.755Z,100734.06
2023-01-12T20:27:20.016Z,100726.94
2023-01-12T20:29:49.552Z,100739.09
2023-01-12T20:32:21.123Z,100729.25
2023-01-12T20:34:47.925Z,100735.81
2023-01-12T20:37:19.810Z,100737.41
2023-01-12T20:39:46.805Z,100733.75
2023-01-12T20:42:15.716Z,100741.03
2023-01-12T20:44:47.427Z,100741.78
2023-01-12T20:47:19.079Z,100739.34
2023-01-12T20:49:48.139Z,100747.03
2023-01-12T20:52:14.963Z,100744.16
2023-01-12T20:54:42.054Z,100739.03
2023-01-12T20:57:13.686Z,100735.50
2023-01-12T20:59:40.403Z,100748.34
2023-01-12T21:02:07.938Z,100746.06
2023-01-12T21:04:37.013Z,100740.22
2023-01-12T21:07:03.912Z,100741.19
2023-01-12T21:09:30.513Z,100743.06
2023-01-12T21:11:57.325Z,100733.66
2023-01-12T21:14:24.076Z,100747.50
2023-01-12T21:17:06.212Z,100738.78
2023-01-12T21:19:33.147Z,100743.66
2023-01-12T21:22:02.269Z,100746.06
2023-01-12T21:24:32.206Z,100747.94
2023-01-12T21:26:58.887Z,100746.16
2023-01-12T21:29:26.465Z,100741.91
2023-01-12T21:31:53.388Z,100738.59
2023-01-12T21:34:22.366Z,100737.13
2023-01-12T21:36:49.157Z,100733.84
2023-01-12T21:39:17.975Z,100732.16
2023-01-12T21:42:03.158Z,100730.38
2023-01-12T21:44:29.896Z,100737.22
2023-01-12T21:46:58.886Z,100735.44
2023-01-12T21:49:28.460Z,100746.63
2023-01-12T21:51:57.490Z,100732.94
2023-01-12T21:54:24.194Z,100732.25
2023-01-12T21:56:50.876Z,100733.06
2023-01-12T21:59:18.550Z,100729.56
2023-01-12T22:01:45.629Z,100728.63
2023-01-12T22:04:12.360Z,100731.25
2023-01-12T22:06:42.219Z,100725.41
2023-01-12T22:09:09.433Z,100721.78
2023-01-12T22:11:38.452Z,100722.16
2023-01-12T22:14:05.172Z,100713.13
2023-01-12T22:16:31.833Z,100709.03
2023-01-12T22:19:01.091Z,100717.47
2023-01-12T22:21:27.766Z,100702.19
2023-01-12T22:23:57.113Z,100706.34
2023-01-12T22:26:23.751Z,100703.00
2023-01-12T22:28:52.746Z,100706.72
2023-01-12T22:31:23.020Z,100704.47
2023-01-12T22:34:01.007Z,100701.09
2023-01-12T22:36:27.672Z,100709.06
2023-01-12T22:38:54.914Z,100704.81
2023-01-12T22:41:22.627Z,100699.66
2023-01-12T22:43:49.475Z,100701.28
2023-01-12T22:46:19.101Z,100690.97
2023-01-12T22:48:49.780Z,100693.75
2023-01-12T22:51:17.052Z,100688.59
2023-01-12T22:53:43.984Z,100690.28
2023-01-12T22:56:11.311Z,100683.53
2023-01-12T22:58:40.518Z,100683.63
2023-01-12T23:01:10.127Z,100686.97
2023-01-12T23:03:37.539Z,100685.31
2023-01-12T23:06:07.440Z,100683.63
2023-01-12T23:08:34.050Z,100690.97
2023-01-12T23:11:05.343Z,100694.19
2023-01-12T23:13:34.323Z,100691.69
2023-01-12T23:16:08.608Z,100690.97
2023-01-12T23:18:35.702Z,100688.59
2023-01-12T23:21:03.527Z,100696.50
2023-01-12T23:23:30.725Z,100691.41
2023-01-12T23:26:03.052Z,100698.97
2023-01-12T23:28:29.660Z,100695.06
2023-01-12T23:31:03.287Z,100696.31
2023-01-12T23:33:29.872Z,100692.84
2023-01-12T23:35:58.954Z,100697.94
2023-01-12T23:38:25.533Z,100699.81
2023-01-12T23:40:52.249Z,100697.13
2023-01-12T23:43:21.290Z,100686.81
2023-01-12T23:45:50.500Z,100690.91
2023-01-12T23:48:17.135Z,100697.28
2023-01-12T23:50:43.653Z,100696.63
2023-01-12T23:53:12.716Z,100702.19
2023-01-12T23:55:39.644Z,100695.69
2023-01-12T23:58:06.525Z,100695.31
